createdAt,value
2023-03-03T00:00:38.720Z,13.17
2023-03-03T00:03:42.934Z,12.23
2023-03-03T00:06:45.925Z,13.47
2023-03-03T00:09:48.741Z,13.43
2023-03-03T00:12:51.948Z,13.97
2023-03-03T00:15:57.222Z,13.10
2023-03-03T00:19:01.963Z,11.83
2023-03-03T00:22:17.238Z,14.33
2023-03-03T00:25:29.739Z,12.40
2023-03-03T00:28:42.140Z,11.97
2023-03-03T00:31:44.812Z,12.47
2023-03-03T00:34:49.718Z,14.10
2023-03-03T00:37:56.278Z,13.33
2023-03-03T00:40:59.102Z,13.47
2023-03-03T00:44:01.970Z,13.20
2023-03-03T00:47:31.256Z,12.80
2023-03-03T00:50:36.727Z,12.67
2023-03-03T00:53:39.473Z,13.40
2023-03-03T00:56:42.249Z,13.10
2023-03-03T00:59:44.988Z,13.47
2023-03-03T01:02:48.553Z,13.47
2023-03-03T01:05:53.666Z,12.37
2023-03-03T01:08:57.378Z,12.53
2023-03-03T01:12:00.990Z,13.20
2023-03-03T01:15:03.981Z,13.97
2023-03-03T01:18:07.082Z,13.60
2023-03-03T01:21:12.318Z,14.30
2023-03-03T01:24:15.240Z,12.83
2023-03-03T01:27:18.294Z,14.03
2023-03-03T01:30:21.230Z,13.33
2023-03-03T01:33:23.937Z,13.33
2023-03-03T01:36:29.564Z,13.17
2023-03-03T01:39:32.420Z,13.77
2023-03-03T01:42:35.356Z,13.07
2023-03-03T01:46:06.739Z,12.87
2023-03-03T01:49:15.478Z,13.93
2023-03-03T01:52:27.415Z,12.50
2023-03-03T01:55:34.892Z,14.30
2023-03-03T01:58:42.696Z,13.63
2023-03-03T02:01:48.187Z,13.43
2023-03-03T02:04:51.584Z,12.10
2023-03-03T02:07:55.917Z,12.30
2023-03-03T02:10:59.846Z,13.13
2023-03-03T02:14:02.705Z,13.90
2023-03-03T02:17:05.596Z,14.07
2023-03-03T02:20:14.443Z,13.33
2023-03-03T02:23:28.027Z,12.97
2023-03-03T02:26:34.931Z,14.90
2023-03-03T02:29:37.956Z,13.93
2023-03-03T02:32:40.868Z,14.07
2023-03-03T02:35:44.154Z,13.07
2023-03-03T02:38:52.724Z,12.53
2023-03-03T02:42:02.495Z,13.73
2023-03-03T02:45:06.021Z,13.83
2023-03-03T02:48:08.792Z,13.70
2023-03-03T02:51:11.688Z,15.20
2023-03-03T02:54:16.074Z,13.33
2023-03-03T02:57:20.127Z,13.83
2023-03-03T03:00:23.056Z,14.37
2023-03-03T03:03:25.959Z,14.83
2023-03-03T03:06:28.652Z,14.70
2023-03-03T03:09:31.423Z,14.60
2023-03-03T03:12:35.478Z,12.87
2023-03-03T03:15:38.529Z,13.43
2023-03-03T03:18:41.326Z,14.10
2023-03-03T03:21:44.628Z,14.00
2023-03-03T03:24:47.818Z,13.80
2023-03-03T03:27:52.132Z,14.07
2023-03-03T03:30:55.167Z,13.73
2023-03-03T03:33:57.944Z,13.53
2023-03-03T03:37:00.659Z,13.63
2023-03-03T03:40:03.383Z,14.97
2023-03-03T03:43:08.227Z,15.03
2023-03-03T03:46:10.966Z,14.40
2023-03-03T03:49:14.267Z,14.17
2023-03-03T03:52:17.294Z,16.10
2023-03-03T03:55:20.174Z,13.83
2023-03-03T03:58:24.499Z,13.33
2023-03-03T04:01:27.229Z,14.60
2023-03-03T04:04:29.882Z,14.30
2023-03-03T04:07:32.596Z,14.30
2023-03-03T04:10:35.817Z,14.53
2023-03-03T04:13:40.089Z,13.83
2023-03-03T04:16:42.720Z,13.23
2023-03-03T04:19:45.708Z,15.47
2023-03-03T04:22:48.829Z,13.80
2023-03-03T04:25:51.552Z,12.50
2023-03-03T04:28:59.051Z,15.17
2023-03-03T04:32:01.831Z,14.00
2023-03-03T04:35:08.457Z,14.30
2023-03-03T04:38:11.536Z,14.50
2023-03-03T04:41:14.459Z,14.03
2023-03-03T04:44:18.519Z,15.37
2023-03-03T04:47:21.308Z,15.03
2023-03-03T04:50:24.044Z,14.80
2023-03-03T04:53:27.323Z,15.07
2023-03-03T04:56:32.523Z,16.20
2023-03-03T04:59:36.917Z,14.97
2023-03-03T05:02:39.637Z,14.80
2023-03-03T05:05:42.669Z,14.63
2023-03-03T05:08:45.600Z,13.07
2023-03-03T05:11:48.472Z,14.73
2023-03-03T05:14:52.664Z,15.73
2023-03-03T05:17:56.438Z,13.97
2023-03-03T05:20:59.365Z,14.07
2023-03-03T05:24:02.178Z,16.00
2023-03-03T05:27:05.587Z,14.70
2023-03-03T05:30:11.423Z,15.60
2023-03-03T05:33:16.184Z,16.10
2023-03-03T05:36:19.027Z,16.13
2023-03-03T05:39:21.886Z,14.03
2023-03-03T05:42:24.761Z,14.20
2023-03-03T05:45:29.160Z,16.63
2023-03-03T05:48:31.939Z,15.27
2023-03-03T05:51:34.877Z,17.43
2023-03-03T05:54:37.871Z,16.87
2023-03-03T05:57:40.700Z,16.63
2023-03-03T06:00:44.795Z,17.67
2023-03-03T06:03:47.738Z,17.70
2023-03-03T06:06:50.930Z,16.90
2023-03-03T06:09:53.657Z,17.17
2023-03-03T06:12:56.356Z,15.37
2023-03-03T06:16:00.528Z,15.13
2023-03-03T06:19:03.398Z,16.03
2023-03-03T06:22:06.088Z,16.73
2023-03-03T06:25:09.634Z,17.40
2023-03-03T06:28:13.412Z,17.33
2023-03-03T06:31:17.571Z,17.77
2023-03-03T06:34:20.836Z,17.23
2023-03-03T06:37:23.531Z,16.87
2023-03-03T06:40:26.430Z,17.03
2023-03-03T06:43:29.571Z,17.10
2023-03-03T06:46:33.782Z,15.73
2023-03-03T06:49:36.753Z,16.80
2023-03-03T06:52:39.972Z,15.17
2023-03-03T06:55:44.974Z,15.43
2023-03-03T06:58:47.767Z,15.33
2023-03-03T07:01:52.515Z,16.67
2023-03-03T07:04:57.703Z,15.27
2023-03-03T07:08:00.385Z,15.17
2023-03-03T07:11:10.199Z,15.77
2023-03-03T07:14:17.917Z,16.60
2023-03-03T07:17:24.356Z,15.57
2023-03-03T07:20:35.102Z,14.87
2023-03-03T07:23:42.782Z,14.97
2023-03-03T07:26:45.947Z,15.87
2023-03-03T07:29:51.562Z,15.30
2023-03-03T07:32:57.747Z,14.67
2023-03-03T07:36:01.265Z,13.77
2023-03-03T07:39:17.269Z,15.43
2023-03-03T07:42:23.805Z,13.80
2023-03-03T07:45:29.104Z,13.37
2023-03-03T07:48:37.394Z,14.70
2023-03-03T07:51:42.726Z,13.27
2023-03-03T07:54:47.731Z,12.23
2023-03-03T07:57:54.685Z,12.17
2023-03-03T08:01:27.677Z,11.60
2023-03-03T08:04:42.148Z,11.33
2023-03-03T08:07:45.176Z,10.77
2023-03-03T08:10:50.168Z,11.27
2023-03-03T08:13:53.108Z,11.27
2023-03-03T08:16:56.917Z,11.20
2023-03-03T08:20:01.128Z,10.93
2023-03-03T08:23:03.901Z,10.40
2023-03-03T08:26:07.537Z,10.67
2023-03-03T08:29:12.006Z,10.47
2023-03-03T08:32:15.333Z,10.00
2023-03-03T08:35:19.944Z,10.30
2023-03-03T08:38:23.458Z,10.83
2023-03-03T08:41:26.265Z,10.67
2023-03-03T08:44:29.414Z,10.37
2023-03-03T08:47:32.325Z,10.67
2023-03-03T08:50:36.684Z,9.70
2023-03-03T08:53:39.499Z,11.17
2023-03-03T08:56:42.445Z,10.23
2023-03-03T08:59:47.835Z,10.87
2023-03-03T09:02:52.486Z,10.63
2023-03-03T09:05:57.174Z,10.53
2023-03-03T09:09:00.148Z,10.73
2023-03-03T09:12:14.240Z,11.03
2023-03-03T09:15:21.617Z,11.40
2023-03-03T09:18:32.959Z,11.47
2023-03-03T09:21:37.140Z,10.30
2023-03-03T09:24:39.886Z,10.47
2023-03-03T09:27:42.736Z,10.80
2023-03-03T09:30:49.776Z,10.73
2023-03-03T09:33:55.260Z,11.77
2023-03-03T09:37:00.084Z,11.83
2023-03-03T09:40:33.941Z,11.07
2023-03-03T09:43:43.943Z,11.20
2023-03-03T09:46:59.581Z,12.13
2023-03-03T09:50:15.468Z,11.70
2023-03-03T09:53:34.778Z,12.13
2023-03-03T09:56:43.614Z,12.30
2023-03-03T10:00:09.085Z,11.70
2023-03-03T10:03:39.485Z,11.33
2023-03-03T10:06:49.950Z,11.93
2023-03-03T10:10:17.256Z,12.33
2023-03-03T10:13:38.049Z,12.27
2023-03-03T10:17:17.034Z,12.77
2023-03-03T10:20:40.363Z,14.07
2023-03-03T10:23:58.986Z,13.50
2023-03-03T10:27:19.961Z,13.77
2023-03-03T10:30:41.119Z,14.60
2023-03-03T10:33:55.656Z,14.30
2023-03-03T10:37:04.625Z,13.87
2023-03-03T10:40:17.281Z,13.90
2023-03-03T10:43:42.895Z,12.43
2023-03-03T10:47:08.807Z,14.13
2023-03-03T10:50:19.224Z,12.90
2023-03-03T10:53:33.685Z,12.87
2023-03-03T10:56:53.340Z,13.13
2023-03-03T11:00:09.338Z,12.73
2023-03-03T11:03:50.108Z,14.10
2023-03-03T11:07:01.055Z,13.00
2023-03-03T11:10:23.790Z,13.90
2023-03-03T11:13:37.689Z,12.47
2023-03-03T11:16:58.893Z,13.27
2023-03-03T11:20:06.844Z,12.50
2023-03-03T11:23:41.170Z,13.27
2023-03-03T11:27:00.106Z,12.93
2023-03-03T11:30:19.072Z,12.67
2023-03-03T11:33:28.434Z,12.97
2023-03-03T11:36:36.088Z,13.17
2023-03-03T11:39:40.660Z,11.00
2023-03-03T11:42:55.008Z,11.33
2023-03-03T11:46:04.909Z,12.40
2023-03-03T11:49:17.275Z,12.10
2023-03-03T11:52:31.133Z,12.50
2023-03-03T11:55:38.254Z,11.47
2023-03-03T11:58:46.064Z,11.87
2023-03-03T12:01:57.424Z,11.93
2023-03-03T12:05:11.735Z,11.70
2023-03-03T12:08:27.230Z,10.97
2023-03-03T12:11:39.757Z,11.67
2023-03-03T12:15:01.115Z,11.80
2023-03-03T12:18:24.833Z,12.53
2023-03-03T12:21:46.067Z,11.30
2023-03-03T12:25:20.401Z,12.77
2023-03-03T12:28:27.731Z,11.87
2023-03-03T12:31:47.306Z,11.93
2023-03-03T12:34:54.844Z,12.23
2023-03-03T12:38:07.453Z,11.33
2023-03-03T12:41:16.179Z,12.30
2023-03-03T12:44:25.250Z,11.73
2023-03-03T12:47:31.075Z,12.15
2023-03-03T12:50:44.844Z,11.88
2023-03-03T12:54:09.187Z,12.48
2023-03-03T12:57:27.522Z,12.02
2023-03-03T13:00:42.294Z,12.45
2023-03-03T13:03:56.128Z,12.55
2023-03-03T13:07:03.702Z,13.38
2023-03-03T13:10:18.197Z,12.20
2023-03-03T13:13:29.474Z,12.45
2023-03-03T13:16:41.429Z,12.73
2023-03-03T13:19:49.094Z,11.57
2023-03-03T13:22:56.736Z,12.98
2023-03-03T13:26:07.849Z,12.75
2023-03-03T13:29:16.469Z,12.65
2023-03-03T13:32:23.318Z,12.40
2023-03-03T13:35:39.347Z,12.73
2023-03-03T13:38:48.021Z,12.52
2023-03-03T13:41:58.352Z,12.48
2023-03-03T13:45:04.074Z,13.02
2023-03-03T13:48:23.739Z,12.18
2023-03-03T13:51:37.290Z,13.02
2023-03-03T13:55:02.857Z,12.07
2023-03-03T13:58:22.364Z,13.60
2023-03-03T14:01:33.342Z,14.07
2023-03-03T14:04:48.249Z,13.38
2023-03-03T14:07:57.101Z,12.13
2023-03-03T14:11:11.431Z,13.48
2023-03-03T14:14:32.413Z,13.68
2023-03-03T14:17:42.629Z,13.40
2023-03-03T14:20:49.272Z,13.88
2023-03-03T14:24:00.586Z,13.57
2023-03-03T14:27:24.260Z,13.32
2023-03-03T14:30:35.197Z,14.07
2023-03-03T14:33:38.234Z,13.40
2023-03-03T14:36:43.945Z,13.18
2023-03-03T14:39:51.634Z,13.57
2023-03-03T14:42:56.595Z,13.43
2023-03-03T14:46:33.620Z,13.90
2023-03-03T14:49:38.562Z,14.52
2023-03-03T14:52:41.508Z,12.82
2023-03-03T14:55:46.216Z,14.25
2023-03-03T14:58:49.209Z,14.10
2023-03-03T15:01:59.588Z,12.70
2023-03-03T15:05:21.158Z,13.75
2023-03-03T15:08:32.473Z,14.40
2023-03-03T15:11:37.431Z,14.70
2023-03-03T15:14:45.981Z,13.63
2023-03-03T15:17:59.188Z,14.80
2023-03-03T15:21:06.451Z,13.63
2023-03-03T15:24:19.065Z,13.55
2023-03-03T15:27:28.037Z,14.77
2023-03-03T15:30:37.241Z,14.17
2023-03-03T15:33:48.031Z,14.53
2023-03-03T15:36:56.824Z,14.20
2023-03-03T15:40:06.095Z,12.80
2023-03-03T15:43:21.326Z,15.27
2023-03-03T15:46:37.161Z,13.20
2023-03-03T15:50:10.592Z,14.45
2023-03-03T15:53:38.113Z,13.90
2023-03-03T15:56:48.036Z,14.10
2023-03-03T16:00:16.177Z,13.20
2023-03-03T16:03:24.818Z,13.80
2023-03-03T16:06:38.578Z,15.23
2023-03-03T16:09:57.467Z,13.37
2023-03-03T16:13:08.482Z,14.13
2023-03-03T16:16:25.878Z,12.00
2023-03-03T16:19:41.224Z,12.73
2023-03-03T16:22:57.358Z,13.20
2023-03-03T16:26:27.784Z,14.60
2023-03-03T16:29:42.460Z,13.27
2023-03-03T16:32:50.664Z,13.40
2023-03-03T16:36:04.596Z,13.20
2023-03-03T16:39:16.316Z,12.93
2023-03-03T16:42:26.561Z,11.47
2023-03-03T16:45:36.555Z,12.53
2023-03-03T16:48:46.864Z,11.73
2023-03-03T16:51:54.861Z,12.87
2023-03-03T16:55:06.128Z,11.87
2023-03-03T16:58:23.269Z,12.70
2023-03-03T17:01:33.292Z,12.73
2023-03-03T17:04:42.469Z,12.37
2023-03-03T17:07:55.470Z,11.80
2023-03-03T17:11:05.711Z,12.30
2023-03-03T17:14:19.934Z,12.67
2023-03-03T17:17:32.722Z,12.33
2023-03-03T17:20:40.700Z,12.27
2023-03-03T17:23:52.808Z,11.77
2023-03-03T17:27:13.598Z,12.50
2023-03-03T17:30:22.467Z,12.87
2023-03-03T17:33:59.255Z,12.13
2023-03-03T17:37:16.837Z,13.00
2023-03-03T17:40:42.464Z,13.00
2023-03-03T17:43:57.552Z,12.27
2023-03-03T17:47:05.453Z,12.30
2023-03-03T17:50:23.138Z,12.47
2023-03-03T17:53:51.189Z,11.57
2023-03-03T17:57:06.192Z,12.23
2023-03-03T18:00:25.749Z,12.77
2023-03-03T18:04:04.261Z,13.73
2023-03-03T18:07:29.958Z,14.27
2023-03-03T18:10:53.214Z,12.53
2023-03-03T18:14:31.283Z,12.37
2023-03-03T18:17:49.141Z,12.27
2023-03-03T18:21:01.396Z,13.47
2023-03-03T18:24:31.724Z,13.10
2023-03-03T18:27:36.970Z,12.73
2023-03-03T18:30:56.991Z,13.27
2023-03-03T18:34:09.777Z,13.43
2023-03-03T18:37:37.760Z,14.77
2023-03-03T18:40:51.813Z,12.97
2023-03-03T18:44:00.473Z,14.47
2023-03-03T18:47:03.289Z,15.50
2023-03-03T18:50:17.397Z,15.10
2023-03-03T18:53:24.790Z,14.77
2023-03-03T18:56:46.008Z,13.77
2023-03-03T18:59:58.383Z,15.23
2023-03-03T19:03:01.525Z,15.10
2023-03-03T19:06:10.221Z,15.27
2023-03-03T19:09:18.836Z,15.93
2023-03-03T19:12:52.019Z,15.33
2023-03-03T19:15:59.243Z,14.97
2023-03-03T19:19:07.393Z,15.47
2023-03-03T19:22:25.622Z,15.80
2023-03-03T19:25:31.741Z,15.77
2023-03-03T19:28:43.496Z,15.43
2023-03-03T19:31:54.301Z,14.23
2023-03-03T19:35:09.753Z,15.73
2023-03-03T19:38:26.215Z,16.13
2023-03-03T19:41:45.621Z,14.67
2023-03-03T19:45:03.827Z,15.27
2023-03-03T19:48:15.735Z,15.10
2023-03-03T19:51:29.324Z,16.43
2023-03-03T19:54:49.165Z,15.00
2023-03-03T19:58:03.597Z,15.03
2023-03-03T20:01:19.050Z,14.17
2023-03-03T20:04:54.037Z,14.20
2023-03-03T20:08:02.889Z,13.90
2023-03-03T20:11:13.448Z,14.73
2023-03-03T20:14:32.249Z,13.63
2023-03-03T20:18:10.701Z,13.03
2023-03-03T20:21:25.311Z,12.87
2023-03-03T20:24:59.978Z,13.03
2023-03-03T20:28:14.167Z,14.83
2023-03-03T20:31:23.503Z,14.17
2023-03-03T20:34:38.976Z,12.40
2023-03-03T20:37:53.631Z,12.73
2023-03-03T20:41:06.505Z,14.37
2023-03-03T20:44:19.277Z,13.53
2023-03-03T20:47:34.412Z,12.77
2023-03-03T20:50:51.268Z,13.80
2023-03-03T20:54:07.389Z,12.27
2023-03-03T20:57:18.000Z,13.60
2023-03-03T21:00:26.073Z,14.47
2023-03-03T21:03:34.255Z,12.53
2023-03-03T21:06:41.581Z,12.70
2023-03-03T21:09:47.412Z,13.80
2023-03-03T21:12:50.367Z,12.23
2023-03-03T21:15:56.998Z,12.83
2023-03-03T21:19:03.102Z,12.87
2023-03-03T21:22:07.319Z,14.23
2023-03-03T21:25:13.609Z,13.73
2023-03-03T21:28:22.426Z,12.63
2023-03-03T21:31:25.435Z,12.37
2023-03-03T21:34:30.661Z,12.47
2023-03-03T21:37:52.262Z,13.13
2023-03-03T21:41:01.255Z,12.67
2023-03-03T21:44:31.172Z,13.20
2023-03-03T21:47:34.018Z,12.33
2023-03-03T21:50:36.932Z,11.33
2023-03-03T21:53:41.415Z,11.40
2023-03-03T21:56:44.305Z,11.57
2023-03-03T21:59:47.424Z,11.50
2023-03-03T22:02:50.292Z,12.50
2023-03-03T22:05:53.586Z,11.87
2023-03-03T22:08:58.013Z,11.83
2023-03-03T22:12:00.929Z,11.57
2023-03-03T22:15:04.056Z,11.50
2023-03-03T22:18:07.028Z,11.37
2023-03-03T22:21:09.941Z,10.73
2023-03-03T22:24:14.186Z,12.10
2023-03-03T22:27:17.014Z,11.07
2023-03-03T22:30:20.050Z,12.37
2023-03-03T22:33:23.278Z,11.27
2023-03-03T22:36:26.236Z,10.93
2023-03-03T22:39:30.581Z,12.80
2023-03-03T22:42:33.548Z,11.57
2023-03-03T22:45:36.557Z,13.00
2023-03-03T22:48:40.004Z,13.50
2023-03-03T22:51:43.258Z,13.03
2023-03-03T22:54:47.458Z,12.87
2023-03-03T22:57:50.356Z,12.03
2023-03-03T23:00:54.497Z,12.53
2023-03-03T23:03:57.383Z,12.47
2023-03-03T23:07:00.384Z,12.20
2023-03-03T23:10:05.833Z,11.60
2023-03-03T23:13:09.004Z,11.50
2023-03-03T23:16:12.085Z,12.20
2023-03-03T23:19:15.008Z,12.03
2023-03-03T23:22:18.746Z,11.57
2023-03-03T23:25:24.167Z,12.40
2023-03-03T23:28:26.918Z,11.07
2023-03-03T23:31:30.585Z,11.47
2023-03-03T23:34:33.766Z,12.07
2023-03-03T23:37:36.732Z,11.47
2023-03-03T23:40:40.937Z,11.20
2023-03-03T23:43:43.793Z,11.10
2023-03-03T23:46:46.610Z,10.20
2023-03-03T23:49:49.377Z,11.40
2023-03-03T23:52:53.046Z,10.80
2023-03-03T23:55:57.230Z,11.00
2023-03-03T23:58:59.944Z,10.60
